Route Details

Aircraft Information
Group: North America Fleet
Types: B738, B752, B762, B763
Route Data
Distance: 112nm
Duration: 1h 00m
Origin METAR: KPDX 010553Z 12007KT 10SM FEW150 SCT200 OVC250 01/M04 A3019 RMK AO2 SLP222 T00111044 10050 20011 56005
Dest. METAR: KSEA 010553Z 15004KT 10SM OVC100 03/M04 A3016 RMK AO2 SLP222 T00331039 10044 20028 55001
Freight Data
(for Feb 1, 2023)
Load Factor:
70%
Manifested Cargo: 46,742lbs
Financial History
Total Freight: 925,238lbs
Average Load: 0lbs/flt
Fuel Used: 72,225lbs
Avg. Fuel Used: 0lbs/flt
Fuel Expense: $60,252
Avg. Fuel Expense: $0
Avg. Fuel Cost: $0/lbs
Total Gross Income: $1,324,856
Pilot Pay: $2,000
Total Expenses: $174,168
Total Revenue: $1,088,677
Average Revenue: $0

Capitol Logistics 384




KPDX
Portland International Airport
Portland, Oregon
KSEA
Seattle-Tacoma International Airport
Seattle, Washington

Activity Log

Date Flight Route Aircraft Duration
11/23/2022 CPX384 COUGA KRIEG HAWKZ7 B738 0h 54m
08/04/2022 CPX384 DCT COUGA DCT KRIEG HAWKZ7 B763 0h 50m
10/06/2020 CPX362 COUGA KRIEG HAWKZ7 B763 0h 38m
08/26/2020 CPX362 COUGA KRIEG HAWKZ7 B763 1h 10m
06/19/2019 CPX362 COUGA KRIEG HAWKZ7 B763 0h 43m
03/21/2019 CPX362 COUGA KRIEG HAWKZ7 B763 0h 39m
03/06/2019 CPX362 COUGA KRIEG HAWKZ7 B763 0h 40m
01/31/2019 CPX362 COUGA KRIEG HAWKZ7 B763 0h 47m
01/31/2019 CPX362 COUGA KRIEG HAWKZ7 B763 0h 43m
01/28/2019 CPX362 COUGA KRIEG HAWKZ7 B763 0h 41m